Vance, Texas
Current Conditions -  °F | °C
As of 4:30 AM on Monday 20 Oct 2014 (Local Time) from KECU Reporting Station
Broken Clouds Broken Clouds  
Wind Chill: 63°   Ceiling: 1300
Heat Index: 63°   Visibility: 10mi
Dew Point: 59°   Wind: 5mph
Humidity: 88%   Direction: 130°SE
Pressure: 30.06"   Gusts: NA
Location:  29.729°N, 100.162°W
Report Text: KECU 200930Z AUTO 13004KT 10SM BKN013 17/15 A3006 RMK AO2
Loading
Personal Weather Stations






























Interactive Weather Map
Tropical Storm Tracking
New forecast layout! Learn more

10-Day Weather Forecast

Advertisements
Track Severe Weather on mobile